createdAt,value
2017-09-06T00:02:01.530Z,100696.44
2017-09-06T00:04:28.439Z,100690.52
2017-09-06T00:06:55.316Z,100689.47
2017-09-06T00:09:22.114Z,100685.34
2017-09-06T00:11:48.947Z,100683.67
2017-09-06T00:14:16.667Z,100687.55
2017-09-06T00:16:43.539Z,100683.26
2017-09-06T00:19:10.366Z,100684.51
2017-09-06T00:21:37.193Z,100679.50
2017-09-06T00:24:04.069Z,100680.65
2017-09-06T00:26:30.935Z,100675.09
2017-09-06T00:28:58.013Z,100678.19
2017-09-06T00:31:24.853Z,100678.54
2017-09-06T00:33:51.747Z,100687.61
2017-09-06T00:36:18.617Z,100678.86
2017-09-06T00:38:45.440Z,100679.14
2017-09-06T00:41:12.291Z,100673.06
2017-09-06T00:43:39.757Z,100674.55
2017-09-06T00:46:07.204Z,100673.59
2017-09-06T00:48:34.051Z,100671.88
2017-09-06T00:51:01.574Z,100673.47
2017-09-06T00:53:28.499Z,100671.59
2017-09-06T01:08:50.902Z,100648.50
2017-09-06T01:11:18.950Z,100654.19
2017-09-06T01:13:47.663Z,100648.30
2017-09-06T01:16:15.140Z,100649.55
2017-09-06T01:18:42.175Z,100648.48
2017-09-06T01:21:09.174Z,100645.88
2017-09-06T01:23:36.113Z,100641.98
2017-09-06T01:26:03.054Z,100646.19
2017-09-06T01:28:29.978Z,100636.66
2017-09-06T01:30:57.020Z,100639.39
2017-09-06T01:54:58.074Z,100624.13
2017-09-06T01:57:35.236Z,100627.73
2017-09-06T02:00:11.747Z,100620.70
2017-09-06T02:02:47.511Z,100626.09
2017-09-06T02:08:41.556Z,100617.92
2017-09-06T02:11:14.493Z,100613.24
2017-09-06T02:13:41.380Z,100614.17
2017-09-06T02:16:08.242Z,100604.14
2017-09-06T02:18:35.042Z,100608.47
2017-09-06T02:21:01.922Z,100598.80
2017-09-06T02:23:28.762Z,100596.40
2017-09-06T02:25:55.613Z,100591.46
2017-09-06T02:28:22.499Z,100588.48
2017-09-06T02:30:49.300Z,100588.69
2017-09-06T02:33:16.115Z,100582.48
2017-09-06T02:35:42.958Z,100579.10
2017-09-06T02:38:09.774Z,100576.49
2017-09-06T02:40:36.650Z,100570.48
2017-09-06T02:43:03.576Z,100567.74
2017-09-06T02:45:30.466Z,100562.16
2017-09-06T02:47:57.287Z,100566.40
2017-09-06T02:50:24.236Z,100562.58
2017-09-06T02:52:51.088Z,100562.17
2017-09-06T02:55:17.927Z,100562.86
2017-09-06T02:57:44.768Z,100554.91
2017-09-06T03:00:11.576Z,100551.31
2017-09-06T03:02:38.388Z,100552.94
2017-09-06T03:05:05.260Z,100553.42
2017-09-06T03:07:32.068Z,100548.47
2017-09-06T03:09:58.870Z,100555.03
2017-09-06T03:12:25.733Z,100555.03
2017-09-06T03:14:52.557Z,100551.72
2017-09-06T03:17:19.403Z,100546.56
2017-09-06T03:19:46.211Z,100547.42
2017-09-06T03:22:12.991Z,100546.77
2017-09-06T03:24:39.819Z,100534.66
2017-09-06T03:27:06.607Z,100532.03
2017-09-06T03:29:33.456Z,100534.09
2017-09-06T03:32:00.277Z,100531.41
2017-09-06T03:34:27.127Z,100523.40
2017-09-06T03:36:54.004Z,100526.88
2017-09-06T03:39:20.832Z,100522.00
2017-09-06T03:41:47.629Z,100523.27
2017-09-06T03:44:14.452Z,100520.80
2017-09-06T03:46:41.300Z,100521.57
2017-09-06T03:49:08.179Z,100519.30
2017-09-06T03:51:35.021Z,100517.98
2017-09-06T03:54:01.859Z,100512.04
2017-09-06T03:56:28.754Z,100512.11
2017-09-06T03:58:55.576Z,100510.30
2017-09-06T04:01:22.414Z,100508.19
2017-09-06T04:03:49.231Z,100502.89
2017-09-06T04:06:16.035Z,100506.33
2017-09-06T04:08:42.898Z,100507.30
2017-09-06T04:11:09.763Z,100503.13
2017-09-06T04:13:36.611Z,100503.36
2017-09-06T04:16:03.438Z,100495.89
2017-09-06T04:18:30.278Z,100494.33
2017-09-06T04:20:57.112Z,100491.25
2017-09-06T04:23:23.939Z,100488.30
2017-09-06T04:25:50.795Z,100483.75
2017-09-06T04:28:17.631Z,100478.70
2017-09-06T04:30:44.429Z,100478.13
2017-09-06T04:33:11.280Z,100478.28
2017-09-06T04:35:39.486Z,100478.22
2017-09-06T04:38:06.281Z,100477.07
2017-09-06T04:40:33.084Z,100482.58
2017-09-06T04:42:59.946Z,100481.74
2017-09-06T04:45:26.788Z,100487.51
2017-09-06T04:47:53.638Z,100488.59
2017-09-06T04:50:20.459Z,100495.45
2017-09-06T04:52:47.266Z,100500.72
2017-09-06T04:55:14.078Z,100502.00
2017-09-06T04:57:40.893Z,100491.00
2017-09-06T05:00:07.709Z,100487.83
2017-09-06T05:02:34.556Z,100487.33
2017-09-06T05:05:01.416Z,100501.27
2017-09-06T05:07:28.255Z,100495.35
2017-09-06T05:09:55.044Z,100492.41
2017-09-06T05:12:21.870Z,100493.25
2017-09-06T05:14:48.695Z,100498.33
2017-09-06T05:17:15.524Z,100486.25
2017-09-06T05:19:42.328Z,100494.30
2017-09-06T05:22:09.152Z,100497.75
2017-09-06T05:24:35.975Z,100499.19
2017-09-06T05:27:02.802Z,100497.84
2017-09-06T05:29:29.738Z,100499.53
2017-09-06T05:31:56.564Z,100495.22
2017-09-06T05:34:23.375Z,100496.50
2017-09-06T05:36:50.159Z,100502.08
2017-09-06T05:39:17.016Z,100504.67
2017-09-06T05:41:43.824Z,100505.21
2017-09-06T05:44:10.708Z,100501.88
2017-09-06T05:46:37.516Z,100501.63
2017-09-06T05:49:04.370Z,100512.14
2017-09-06T05:51:31.222Z,100511.09
2017-09-06T05:53:58.042Z,100518.42
2017-09-06T05:56:24.887Z,100518.50
2017-09-06T05:58:51.696Z,100521.67
2017-09-06T06:01:18.602Z,100513.70
2017-09-06T06:03:45.523Z,100517.34
2017-09-06T06:06:12.379Z,100526.52
2017-09-06T06:08:39.172Z,100527.33
2017-09-06T06:11:06.017Z,100537.47
2017-09-06T06:13:32.827Z,100529.97
2017-09-06T06:15:59.651Z,100532.50
2017-09-06T06:18:26.542Z,100533.22
2017-09-06T06:20:53.387Z,100531.44
2017-09-06T06:23:20.223Z,100538.37
2017-09-06T06:25:47.040Z,100537.97
2017-09-06T06:28:13.847Z,100545.54
2017-09-06T06:30:40.656Z,100536.95
2017-09-06T06:33:07.464Z,100539.73
2017-09-06T06:35:34.302Z,100536.46
2017-09-06T06:38:01.136Z,100540.88
2017-09-06T06:40:27.970Z,100552.08
2017-09-06T06:42:54.755Z,100539.43
2017-09-06T06:45:21.559Z,100544.23
2017-09-06T06:47:48.372Z,100549.33
2017-09-06T06:50:15.223Z,100538.71
2017-09-06T06:52:42.029Z,100540.45
2017-09-06T06:55:08.850Z,100535.20
2017-09-06T06:57:35.682Z,100544.18
2017-09-06T07:00:02.574Z,100539.78
2017-09-06T07:02:29.388Z,100541.62
2017-09-06T07:04:56.185Z,100536.17
2017-09-06T07:07:22.963Z,100542.24
2017-09-06T07:09:49.776Z,100541.82
2017-09-06T07:12:16.634Z,100543.33
2017-09-06T07:14:43.505Z,100541.08
2017-09-06T07:17:10.545Z,100546.69
2017-09-06T07:19:37.373Z,100552.27
2017-09-06T07:22:04.170Z,100552.13
2017-09-06T07:24:30.987Z,100560.22
2017-09-06T07:26:57.854Z,100558.73
2017-09-06T07:29:24.698Z,100563.17
2017-09-06T07:31:51.586Z,100561.95
2017-09-06T07:34:18.390Z,100566.19
2017-09-06T07:36:45.219Z,100573.41
2017-09-06T07:39:12.066Z,100573.14
2017-09-06T07:41:38.873Z,100571.41
2017-09-06T07:44:05.778Z,100580.34
2017-09-06T07:46:32.618Z,100581.66
2017-09-06T07:48:59.475Z,100582.87
2017-09-06T07:51:26.309Z,100580.19
2017-09-06T07:53:53.143Z,100593.00
2017-09-06T07:56:19.990Z,100593.51
2017-09-06T07:58:46.851Z,100601.19
2017-09-06T08:01:13.663Z,100607.23
2017-09-06T08:03:40.466Z,100621.68
2017-09-06T08:06:07.278Z,100627.70
2017-09-06T08:08:34.089Z,100651.96
2017-09-06T08:11:00.945Z,100642.34
2017-09-06T08:13:27.759Z,100663.73
2017-09-06T08:15:54.566Z,100667.75
2017-09-06T08:18:21.402Z,100666.20
2017-09-06T08:20:48.230Z,100677.36
2017-09-06T08:23:15.083Z,100676.24
2017-09-06T08:25:41.895Z,100689.91
2017-09-06T08:28:08.713Z,100677.45
2017-09-06T08:30:35.566Z,100708.42
2017-09-06T08:33:02.403Z,100710.41
2017-09-06T08:35:29.213Z,100708.91
2017-09-06T08:37:56.086Z,100714.17
2017-09-06T08:40:22.914Z,100725.73
2017-09-06T08:42:49.731Z,100729.67
2017-09-06T08:45:16.555Z,100735.66
2017-09-06T08:47:43.383Z,100740.87
2017-09-06T08:50:10.200Z,100750.02
2017-09-06T08:52:37.039Z,100749.83
2017-09-06T08:55:03.870Z,100753.44
2017-09-06T08:57:30.714Z,100756.30
2017-09-06T08:59:57.580Z,100760.32
2017-09-06T09:02:24.422Z,100758.17
2017-09-06T09:04:51.242Z,100767.22
2017-09-06T09:07:18.097Z,100764.38
2017-09-06T09:09:44.939Z,100772.52
2017-09-06T09:12:11.764Z,100766.15
2017-09-06T09:14:38.576Z,100768.56
2017-09-06T09:17:05.391Z,100768.13
2017-09-06T09:19:32.217Z,100766.48
2017-09-06T09:21:59.042Z,100768.91
2017-09-06T09:24:25.915Z,100765.30
2017-09-06T09:26:52.781Z,100771.86
2017-09-06T09:29:19.615Z,100770.41
2017-09-06T09:31:46.432Z,100770.45
2017-09-06T09:34:13.277Z,100774.19
2017-09-06T09:36:40.131Z,100759.09
2017-09-06T09:39:06.955Z,100775.06
2017-09-06T09:41:33.802Z,100771.00
2017-09-06T09:44:00.657Z,100771.56
2017-09-06T09:46:27.469Z,100784.12
2017-09-06T09:48:54.292Z,100775.05
2017-09-06T09:51:21.159Z,100773.31
2017-09-06T09:53:47.995Z,100775.85
2017-09-06T09:56:14.819Z,100782.20
2017-09-06T09:58:41.662Z,100787.70
2017-09-06T10:01:08.478Z,100784.81
2017-09-06T10:03:35.293Z,100784.16
2017-09-06T10:06:02.131Z,100780.98
2017-09-06T10:08:28.975Z,100773.83
2017-09-06T10:10:55.810Z,100773.16
2017-09-06T10:13:22.699Z,100788.44
2017-09-06T10:18:16.167Z,100778.63
2017-09-06T10:20:43.079Z,100779.00
2017-09-06T10:23:09.910Z,100783.30
2017-09-06T10:25:36.758Z,100773.36
2017-09-06T10:28:03.603Z,100769.41
2017-09-06T10:30:30.447Z,100777.45
2017-09-06T10:32:57.290Z,100773.79
2017-09-06T10:35:24.110Z,100771.89
2017-09-06T10:37:50.952Z,100782.07
2017-09-06T10:40:17.791Z,100767.86
2017-09-06T10:42:44.624Z,100784.47
2017-09-06T10:45:11.457Z,100785.20
2017-09-06T10:47:38.306Z,100781.31
2017-09-06T10:50:05.142Z,100790.22
2017-09-06T10:52:31.992Z,100789.46
2017-09-06T10:54:58.839Z,100782.61
2017-09-06T10:57:25.671Z,100782.48
2017-09-06T10:59:52.464Z,100784.10
2017-09-06T11:02:19.300Z,100779.14
2017-09-06T11:04:46.092Z,100785.27
2017-09-06T11:07:12.901Z,100787.28
2017-09-06T11:09:39.717Z,100791.70
2017-09-06T11:12:06.631Z,100780.77
2017-09-06T11:14:33.487Z,100784.47
2017-09-06T11:17:00.301Z,100783.13
2017-09-06T11:19:27.187Z,100787.20
2017-09-06T11:21:54.030Z,100787.02
2017-09-06T11:24:20.866Z,100788.34
2017-09-06T11:26:47.746Z,100785.87
2017-09-06T11:29:14.614Z,100787.58
2017-09-06T11:31:41.463Z,100800.64
2017-09-06T11:34:08.286Z,100795.09
2017-09-06T11:36:35.180Z,100798.05
2017-09-06T11:39:02.027Z,100795.61
2017-09-06T11:41:28.862Z,100796.18
2017-09-06T11:43:55.691Z,100802.30
2017-09-06T11:46:22.519Z,100801.37
2017-09-06T11:48:49.418Z,100803.98
2017-09-06T11:51:16.292Z,100813.97
2017-09-06T11:53:43.127Z,100815.77
2017-09-06T11:56:09.961Z,100812.92
2017-09-06T11:58:36.775Z,100811.22
2017-09-06T12:01:03.584Z,100802.41
2017-09-06T12:03:30.446Z,100804.31
2017-09-06T12:05:57.335Z,100797.52
2017-09-06T12:08:24.170Z,100803.72
2017-09-06T12:10:51.051Z,100798.52
2017-09-06T12:13:17.852Z,100793.29
2017-09-06T12:15:44.665Z,100792.58
2017-09-06T12:18:11.487Z,100794.32
2017-09-06T12:20:38.334Z,100793.87
2017-09-06T12:23:05.179Z,100796.55
2017-09-06T12:25:32.041Z,100787.21
2017-09-06T12:27:58.876Z,100789.75
2017-09-06T12:30:25.688Z,100793.56
2017-09-06T12:32:52.515Z,100794.87
2017-09-06T12:35:19.365Z,100795.98
2017-09-06T12:37:46.180Z,100794.55
2017-09-06T12:40:13.035Z,100799.50
2017-09-06T12:42:39.903Z,100792.80
2017-09-06T12:45:06.751Z,100793.47
2017-09-06T12:47:33.844Z,100795.77
2017-09-06T12:50:00.708Z,100787.62
2017-09-06T12:52:27.507Z,100788.34
2017-09-06T12:54:54.430Z,100784.04
2017-09-06T12:57:21.249Z,100786.06
2017-09-06T12:59:48.101Z,100786.92
2017-09-06T13:02:14.975Z,100782.94
2017-09-06T13:04:41.798Z,100774.88
2017-09-06T13:07:08.588Z,100780.76
2017-09-06T13:09:35.416Z,100782.91
2017-09-06T13:12:02.221Z,100779.31
2017-09-06T13:14:29.098Z,100771.52
2017-09-06T13:16:56.021Z,100774.91
2017-09-06T13:19:22.853Z,100781.26
2017-09-06T13:21:49.658Z,100777.80
2017-09-06T13:24:16.511Z,100781.95
2017-09-06T13:26:43.387Z,100779.42
2017-09-06T13:29:10.276Z,100778.45
2017-09-06T13:31:37.117Z,100782.45
2017-09-06T13:34:03.973Z,100776.62
2017-09-06T13:36:30.863Z,100788.97
2017-09-06T13:38:57.694Z,100789.82
2017-09-06T13:41:24.515Z,100785.28
2017-09-06T13:43:51.329Z,100791.72
2017-09-06T13:46:18.136Z,100785.27
2017-09-06T13:48:44.982Z,100792.08
2017-09-06T13:51:11.804Z,100781.73
2017-09-06T13:53:38.637Z,100796.23
2017-09-06T13:56:05.466Z,100796.32
2017-09-06T13:58:32.277Z,100796.02
2017-09-06T14:00:59.207Z,100803.56
2017-09-06T14:03:26.090Z,100799.10
2017-09-06T14:05:52.890Z,100803.20
2017-09-06T14:08:19.724Z,100804.16
2017-09-06T14:10:46.528Z,100820.14
2017-09-06T14:13:13.329Z,100811.44
2017-09-06T14:15:40.162Z,100810.13
2017-09-06T14:18:06.999Z,100816.97
2017-09-06T14:20:33.867Z,100808.55
2017-09-06T14:23:00.708Z,100803.68
2017-09-06T14:25:27.554Z,100806.01
2017-09-06T14:27:54.426Z,100808.04
2017-09-06T14:30:21.267Z,100807.52
2017-09-06T14:32:48.096Z,100813.88
2017-09-06T14:35:14.974Z,100815.31
2017-09-06T14:37:42.008Z,100821.68
2017-09-06T14:40:08.807Z,100823.82
2017-09-06T14:42:35.650Z,100819.45
2017-09-06T14:45:02.524Z,100828.03
2017-09-06T14:47:29.338Z,100818.98
2017-09-06T14:49:56.183Z,100821.17
2017-09-06T14:52:23.004Z,100822.32
2017-09-06T14:54:49.854Z,100829.38
2017-09-06T14:57:16.703Z,100834.19
2017-09-06T14:59:43.503Z,100844.79
2017-09-06T15:02:10.423Z,100853.93
2017-09-06T15:04:37.268Z,100866.42
2017-09-06T15:07:04.136Z,100877.15
2017-09-06T15:09:30.942Z,100882.89
2017-09-06T15:11:57.771Z,100884.15
2017-09-06T15:14:24.593Z,100873.53
2017-09-06T15:16:51.421Z,100872.73
2017-09-06T15:19:18.229Z,100880.19
2017-09-06T15:21:45.262Z,100874.03
2017-09-06T15:24:12.123Z,100876.42
2017-09-06T15:26:38.951Z,100871.64
2017-09-06T15:29:05.802Z,100863.37
2017-09-06T15:31:32.633Z,100864.95
2017-09-06T15:33:59.466Z,100862.88
2017-09-06T15:36:26.292Z,100866.61
2017-09-06T15:38:53.124Z,100859.41
2017-09-06T15:41:20.040Z,100863.05
2017-09-06T15:43:46.901Z,100864.05
2017-09-06T15:46:13.700Z,100861.89
2017-09-06T15:48:40.513Z,100859.22
2017-09-06T15:51:07.342Z,100866.53
2017-09-06T15:53:34.926Z,100860.14
2017-09-06T15:56:01.727Z,100863.91
2017-09-06T15:58:28.573Z,100865.48
2017-09-06T16:00:55.390Z,100859.95
2017-09-06T16:03:22.236Z,100854.78
2017-09-06T16:05:49.094Z,100862.92
2017-09-06T16:08:15.919Z,100860.36
2017-09-06T16:10:42.759Z,100862.12
2017-09-06T16:13:09.569Z,100861.52
2017-09-06T16:15:36.451Z,100864.09
2017-09-06T16:18:03.364Z,100869.24
2017-09-06T16:20:30.226Z,100870.83
2017-09-06T16:22:57.093Z,100869.51
2017-09-06T16:25:23.940Z,100867.22
2017-09-06T16:27:50.747Z,100867.92
2017-09-06T16:30:17.560Z,100869.56
2017-09-06T16:32:44.379Z,100872.16
2017-09-06T16:35:11.220Z,100870.36
2017-09-06T16:37:38.049Z,100873.31
2017-09-06T16:40:04.923Z,100875.75
2017-09-06T16:42:31.804Z,100881.67
2017-09-06T16:44:58.669Z,100873.63
2017-09-06T16:47:25.479Z,100878.52
2017-09-06T16:49:52.322Z,100879.31
2017-09-06T16:52:19.141Z,100877.72
2017-09-06T16:54:45.979Z,100879.12
2017-09-06T16:57:12.812Z,100877.42
2017-09-06T16:59:39.651Z,100880.60
2017-09-06T17:02:06.459Z,100881.33
2017-09-06T17:04:33.255Z,100877.90
2017-09-06T17:07:00.103Z,100878.20
2017-09-06T17:09:41.820Z,100886.30
2017-09-06T17:12:08.664Z,100884.34
2017-09-06T17:14:35.512Z,100883.14
2017-09-06T17:17:02.348Z,100899.80
2017-09-06T17:19:29.171Z,100918.21
2017-09-06T17:21:55.997Z,100930.73
2017-09-06T17:24:22.828Z,100935.42
2017-09-06T17:26:49.654Z,100928.85
2017-09-06T17:29:16.470Z,100929.30
2017-09-06T17:31:43.339Z,100927.12
2017-09-06T17:34:10.176Z,100926.02
2017-09-06T17:36:37.024Z,100916.36
2017-09-06T17:39:03.974Z,100920.70
2017-09-06T17:41:31.067Z,100916.59
2017-09-06T17:43:57.969Z,100917.50
2017-09-06T17:46:24.843Z,100920.52
2017-09-06T18:06:56.492Z,100934.53
2017-09-06T18:09:24.183Z,100941.02
2017-09-06T18:11:51.092Z,100946.34
2017-09-06T18:14:18.405Z,100938.20
2017-09-06T18:16:46.611Z,100938.14
2017-09-06T18:19:13.687Z,100940.91
2017-09-06T18:21:40.618Z,100946.92
2017-09-06T18:24:07.646Z,100944.28
2017-09-06T18:26:35.614Z,100946.73
2017-09-06T18:29:02.857Z,100949.17
2017-09-06T18:31:29.724Z,100955.12
2017-09-06T18:33:56.645Z,100950.14
2017-09-06T18:36:24.226Z,100954.75
2017-09-06T18:38:52.299Z,100963.22
2017-09-06T18:41:20.333Z,100956.25
2017-09-06T18:43:48.370Z,100962.08
2017-09-06T18:46:16.893Z,100956.77
2017-09-06T18:48:45.594Z,100958.59
2017-09-06T18:51:12.784Z,100962.08
2017-09-06T18:53:39.746Z,100962.42
2017-09-06T18:56:06.619Z,100960.87
2017-09-06T18:58:33.573Z,100970.34
2017-09-06T19:01:00.567Z,100962.02
2017-09-06T19:03:27.466Z,100970.14
2017-09-06T19:05:55.391Z,100968.15
2017-09-06T19:08:23.002Z,100971.69
2017-09-06T19:10:51.733Z,100970.77
2017-09-06T19:13:18.985Z,100974.60
2017-09-06T19:15:47.380Z,100972.19
2017-09-06T19:18:14.487Z,100974.58
2017-09-06T19:20:41.963Z,100973.81
2017-09-06T19:23:09.294Z,100977.85
2017-09-06T19:25:36.372Z,100976.05
2017-09-06T19:28:03.225Z,100976.85
2017-09-06T19:30:30.345Z,100978.83
2017-09-06T19:32:58.165Z,100980.64
2017-09-06T19:35:25.199Z,100982.28
2017-09-06T19:37:52.179Z,100979.63
2017-09-06T19:40:19.400Z,100979.37
2017-09-06T19:42:46.245Z,100979.70
2017-09-06T19:45:13.063Z,100980.44
2017-09-06T19:47:40.023Z,100978.62
2017-09-06T19:50:07.367Z,100981.55
2017-09-06T19:52:35.038Z,100991.81
2017-09-06T19:55:02.161Z,100990.62
2017-09-06T19:57:29.991Z,100991.73
2017-09-06T19:59:58.599Z,101000.59
2017-09-06T20:02:25.505Z,100996.40
2017-09-06T20:04:52.476Z,100986.41
2017-09-06T20:07:19.286Z,100991.77
2017-09-06T20:09:46.649Z,100997.89
2017-09-06T20:12:13.482Z,100996.91
2017-09-06T20:14:40.771Z,100991.31
2017-09-06T20:17:07.659Z,100982.75
2017-09-06T20:19:34.824Z,100987.73
2017-09-06T20:22:01.788Z,100979.66
2017-09-06T20:24:28.657Z,100983.21
2017-09-06T20:26:55.478Z,100985.19
2017-09-06T20:29:22.383Z,100991.30
2017-09-06T20:31:49.224Z,100981.70
2017-09-06T20:34:16.069Z,100970.52
2017-09-06T20:36:42.938Z,100969.02
2017-09-06T20:39:09.794Z,100970.83
2017-09-06T20:41:37.163Z,100976.50
2017-09-06T20:44:03.985Z,100970.94
2017-09-06T20:46:30.817Z,100969.97
2017-09-06T20:48:57.743Z,100970.88
2017-09-06T20:51:25.184Z,100969.58
2017-09-06T20:53:52.059Z,100972.44
2017-09-06T20:56:18.946Z,100967.64
2017-09-06T20:58:46.222Z,100974.26
2017-09-06T21:01:13.962Z,100973.84
2017-09-06T21:03:40.825Z,100974.39
2017-09-06T21:06:07.896Z,100970.20
2017-09-06T21:08:34.707Z,100968.55
2017-09-06T21:11:01.798Z,100972.91
2017-09-06T21:13:28.946Z,100975.05
2017-09-06T21:15:55.814Z,100968.56
2017-09-06T21:18:22.647Z,100962.13
2017-09-06T21:20:49.660Z,100968.12
2017-09-06T21:23:16.495Z,100970.44
2017-09-06T21:25:43.319Z,100971.94
2017-09-06T21:28:10.160Z,100967.98
2017-09-06T21:30:36.938Z,100976.12
2017-09-06T21:33:03.822Z,100969.97
2017-09-06T21:35:30.719Z,100973.95
2017-09-06T21:37:57.956Z,100981.67
2017-09-06T21:40:24.861Z,100974.16
2017-09-06T21:42:51.642Z,100978.91
2017-09-06T21:45:18.450Z,100971.63
2017-09-06T21:47:45.698Z,100970.20
2017-09-06T21:50:13.027Z,100968.60
2017-09-06T21:52:40.284Z,100967.98
2017-09-06T21:55:07.674Z,100973.52
2017-09-06T21:57:34.602Z,100967.41
2017-09-06T22:00:01.764Z,100965.86
2017-09-06T22:02:28.603Z,100964.09
2017-09-06T22:04:55.408Z,100958.13
2017-09-06T22:07:22.208Z,100962.37
2017-09-06T22:09:49.013Z,100961.38
2017-09-06T22:12:15.847Z,100961.83
2017-09-06T22:14:42.661Z,100965.05
2017-09-06T22:17:09.474Z,100957.91
2017-09-06T22:19:36.291Z,100957.38
2017-09-06T22:22:03.102Z,100951.18
2017-09-06T22:24:29.942Z,100954.53
2017-09-06T22:26:56.809Z,100957.77
2017-09-06T22:29:23.634Z,100947.69
2017-09-06T22:31:50.461Z,100953.34
2017-09-06T22:34:17.245Z,100949.88
2017-09-06T22:36:44.066Z,100961.88
2017-09-06T22:39:10.891Z,100955.37
2017-09-06T22:41:37.708Z,100964.31
2017-09-06T22:44:05.481Z,100980.34
2017-09-06T22:46:32.294Z,100977.97
2017-09-06T22:49:03.256Z,100982.79
2017-09-06T22:51:33.685Z,100982.86
2017-09-06T22:54:01.055Z,100981.50
2017-09-06T22:56:27.906Z,100980.22
2017-09-06T22:58:55.637Z,100983.63
2017-09-06T23:01:22.523Z,100980.98
2017-09-06T23:03:49.672Z,100979.34
2017-09-06T23:06:16.467Z,100978.84
2017-09-06T23:08:43.285Z,100971.71
2017-09-06T23:11:10.100Z,100976.19
2017-09-06T23:13:36.951Z,100974.09
2017-09-06T23:16:03.746Z,100976.97
2017-09-06T23:18:30.609Z,100970.48
2017-09-06T23:20:57.418Z,100966.47
2017-09-06T23:23:24.310Z,100969.81
2017-09-06T23:25:51.132Z,100961.77
2017-09-06T23:28:17.932Z,100968.92
2017-09-06T23:30:44.740Z,100956.53
2017-09-06T23:33:11.552Z,100959.66
2017-09-06T23:35:38.331Z,100954.70
2017-09-06T23:38:05.172Z,100956.39
2017-09-06T23:40:31.962Z,100954.16
2017-09-06T23:42:58.797Z,100947.39
2017-09-06T23:45:26.098Z,100939.22
2017-09-06T23:47:52.882Z,100938.05
2017-09-06T23:50:19.754Z,100944.55
2017-09-06T23:52:46.599Z,100937.88
2017-09-06T23:55:13.410Z,100940.73
2017-09-06T23:57:40.237Z,100936.13
